Time;durP1;ratioP1;P1;durP2;ratioP2;P2;SDS_P1;SDS_P2;PMS_P1;PMS_P2;Temp;Humidity;BMP_temperature;BMP_pressure;BME280_temperature;BME280_humidity;BME280_pressure;Samples;Min_cycle;Max_cycle;Signal;HPM_P1;HPM_P2
2020/12/02 00:00:28;;;;;;;37.38;22.30;;;-0.10;25.80;;;;;;5064524;28;20278;-58
2020/12/02 00:02:58;;;;;;;34.70;21.73;;;-0.10;27.90;;;;;;5064860;28;20200;-57
2020/12/02 00:05:26;;;;;;;46.50;24.05;;;-0.10;27.00;;;;;;5064616;28;20237;-59
2020/12/02 00:08:08;;;;;;;39.38;22.40;;;-0.10;28.30;;;;;;5069206;28;20699;-56
2020/12/02 00:10:34;;;;;;;38.40;23.33;;;-0.10;29.10;;;;;;5080082;28;20614;-57
2020/12/02 00:13:00;;;;;;;37.78;23.13;;;-0.10;27.70;;;;;;5068086;28;20663;-55
2020/12/02 00:15:26;;;;;;;45.40;24.83;;;0.00;27.60;;;;;;5068382;28;20181;-58
2020/12/02 00:17:59;;;;;;;39.27;22.93;;;0.00;24.00;;;;;;5068881;28;20519;-54
2020/12/02 00:20:25;;;;;;;37.10;22.38;;;0.00;25.70;;;;;;5068525;28;20196;-61
2020/12/02 00:22:51;;;;;;;40.55;25.25;;;0.00;25.90;;;;;;5068986;28;20750;-57
2020/12/02 00:25:18;;;;;;;40.17;24.07;;;0.00;23.10;;;;;;5068483;28;20189;-57
2020/12/02 00:27:44;;;;;;;39.10;22.23;;;0.00;23.50;;;;;;5068472;28;20448;-60
2020/12/02 00:30:12;;;;;;;37.70;22.40;;;0.10;21.10;;;;;;5067868;28;20208;-60
2020/12/02 00:32:43;;;;;;;39.92;23.60;;;0.10;21.40;;;;;;5068333;28;20918;-55
2020/12/02 00:35:13;;;;;;;40.65;23.80;;;0.10;17.80;;;;;;5061113;28;20193;-57
2020/12/02 00:37:39;;;;;;;39.20;22.05;;;0.10;16.70;;;;;;5059351;28;20199;-62
2020/12/02 00:40:06;;;;;;;35.23;22.07;;;0.00;16.10;;;;;;5056759;28;20643;-61
2020/12/02 00:42:32;;;;;;;34.85;21.55;;;0.00;18.30;;;;;;5064998;28;20339;-62
2020/12/02 00:44:58;;;;;;;39.47;22.50;;;-0.10;18.10;;;;;;5069057;28;20185;-59
2020/12/02 00:47:25;;;;;;;43.55;22.88;;;-0.10;22.60;;;;;;5067969;28;20717;-58
2020/12/02 00:49:53;;;;;;;38.17;23.13;;;-0.10;23.40;;;;;;5062996;28;20212;-62
2020/12/02 00:52:19;;;;;;;41.53;23.83;;;-0.20;23.20;;;;;;5064841;28;20240;-62
2020/12/02 00:54:45;;;;;;;40.10;23.05;;;-0.20;22.60;;;;;;5066448;28;20193;-58
2020/12/02 00:57:31;;;;;;;39.13;22.83;;;-0.30;23.00;;;;;;5067956;28;20687;-61
2020/12/02 00:59:59;;;;;;;42.40;22.02;;;-0.30;29.30;;;;;;5064608;28;20185;-58
2020/12/02 01:02:53;;;;;;;38.10;22.30;;;-0.30;30.80;;;;;;5060274;28;20263;-55
2020/12/02 01:05:20;;;;;;;40.63;23.45;;;-0.30;32.20;;;;;;5065261;28;20230;-58
2020/12/02 01:07:47;;;;;;;39.80;23.30;;;-0.30;35.40;;;;;;5068022;28;20834;-57
2020/12/02 01:10:13;;;;;;;36.38;22.00;;;-0.40;35.80;;;;;;5068363;28;20181;-57
2020/12/02 01:12:43;;;;;;;38.42;23.02;;;-0.40;38.70;;;;;;5064606;28;20185;-56
2020/12/02 01:15:10;;;;;;;41.08;24.40;;;-0.40;38.80;;;;;;5066417;28;21050;-58
2020/12/02 01:17:37;;;;;;;41.92;24.02;;;-0.50;39.50;;;;;;5068779;28;20192;-55
2020/12/02 01:20:07;;;;;;;44.28;24.15;;;-0.60;39.40;;;;;;5059426;28;20201;-56
2020/12/02 01:22:41;;;;;;;38.80;24.58;;;-0.60;40.00;;;;;;5059260;28;20209;-56
2020/12/02 01:25:20;;;;;;;44.10;24.00;;;-0.60;42.40;;;;;;5054094;28;20176;-58
2020/12/02 01:28:07;;;;;;;40.67;22.88;;;-0.70;45.70;;;;;;5067838;28;20185;-57
2020/12/02 01:30:36;;;;;;;41.40;23.75;;;-0.60;50.30;;;;;;5055861;28;20179;-57
2020/12/02 01:33:02;;;;;;;44.03;24.23;;;-0.70;51.10;;;;;;5064223;28;20192;-57
2020/12/02 01:35:30;;;;;;;43.33;24.65;;;-0.70;51.50;;;;;;5060307;28;20190;-56
2020/12/02 01:38:02;;;;;;;46.20;24.17;;;-0.70;54.90;;;;;;5056978;28;20181;-57
2020/12/02 01:40:30;;;;;;;42.20;24.20;;;-0.80;54.30;;;;;;5068188;28;20227;-56
2020/12/02 01:42:56;;;;;;;42.13;24.23;;;-0.90;53.00;;;;;;5056756;28;20260;-56
2020/12/02 01:45:34;;;;;;;36.97;22.67;;;-0.90;54.60;;;;;;5059198;28;20208;-55
2020/12/02 01:48:15;;;;;;;42.00;23.75;;;-0.90;55.20;;;;;;5069576;28;20434;-58
2020/12/02 01:50:45;;;;;;;40.72;23.40;;;-0.90;63.40;;;;;;5071901;28;20185;-56
2020/12/02 01:53:14;;;;;;;44.22;24.33;;;-0.90;63.90;;;;;;5069258;28;20177;-55
2020/12/02 01:55:45;;;;;;;40.20;23.50;;;-0.90;69.10;;;;;;5062588;28;20178;-55
2020/12/02 01:58:17;;;;;;;41.75;23.30;;;-0.90;72.00;;;;;;5067875;28;20185;-58
2020/12/02 02:00:49;;;;;;;44.85;24.13;;;-0.90;74.60;;;;;;5058229;28;20198;-56
2020/12/02 02:03:16;;;;;;;40.85;24.33;;;-0.90;76.30;;;;;;5067076;28;20255;-59
2020/12/02 02:06:06;;;;;;;43.63;24.67;;;-0.90;78.30;;;;;;5064356;28;20610;-57
2020/12/02 02:08:34;;;;;;;44.72;24.42;;;-0.90;76.90;;;;;;5067943;28;20178;-55
2020/12/02 02:11:04;;;;;;;40.45;24.52;;;-1.00;75.70;;;;;;5054535;28;20655;-59
2020/12/02 02:13:57;;;;;;;40.70;22.52;;;-1.00;74.90;;;;;;5069027;28;20239;-56
2020/12/02 02:16:34;;;;;;;42.88;23.55;;;-1.00;74.20;;;;;;5062177;28;20215;-57
2020/12/02 02:19:00;;;;;;;42.42;23.40;;;-1.00;73.60;;;;;;5065224;28;20204;-56
2020/12/02 02:21:31;;;;;;;47.75;23.30;;;-1.10;71.30;;;;;;5068111;28;20176;-56
2020/12/02 02:23:56;;;;;;;45.05;23.92;;;-1.10;72.60;;;;;;5071005;28;20698;-57
2020/12/02 02:26:42;;;;;;;41.03;23.33;;;-1.10;73.60;;;;;;5066461;28;20245;-53
2020/12/02 02:29:33;;;;;;;44.20;24.08;;;-1.10;76.80;;;;;;5063941;28;20194;-58
2020/12/02 02:32:37;;;;;;;43.90;24.27;;;-1.10;82.60;;;;;;5060541;28;20516;-55
2020/12/02 02:35:05;;;;;;;43.60;22.63;;;-1.20;82.20;;;;;;5043147;28;20201;-58
2020/12/02 02:37:31;;;;;;;44.88;24.33;;;-1.20;81.50;;;;;;5055807;28;20202;-55
2020/12/02 02:39:58;;;;;;;43.45;23.67;;;-1.20;79.00;;;;;;5070574;28;20208;-57
2020/12/02 02:42:35;;;;;;;43.67;24.20;;;-1.20;77.80;;;;;;5070883;28;20209;-56
2020/12/02 02:45:07;;;;;;;43.63;23.55;;;-1.30;77.70;;;;;;5070740;28;20181;-56
2020/12/02 02:47:33;;;;;;;38.30;23.30;;;-1.40;79.70;;;;;;5070080;28;20187;-57
2020/12/02 02:49:59;;;;;;;40.23;24.23;;;-1.40;79.00;;;;;;5061708;28;20555;-57
2020/12/02 02:52:25;;;;;;;40.13;23.50;;;-1.40;80.40;;;;;;5070148;28;20184;-56
2020/12/02 02:54:50;;;;;;;37.30;22.93;;;-1.40;82.20;;;;;;5061159;28;20266;-56
2020/12/02 02:57:16;;;;;;;45.40;25.07;;;-1.40;84.60;;;;;;5066300;28;20184;-57
2020/12/02 02:59:42;;;;;;;40.93;23.53;;;-1.40;86.90;;;;;;5065929;28;20194;-57
2020/12/02 03:02:12;;;;;;;44.53;24.97;;;-1.40;90.30;;;;;;5060975;28;20302;-55
2020/12/02 03:04:37;;;;;;;42.90;23.35;;;-1.40;91.20;;;;;;5065013;28;20697;-57
2020/12/02 03:07:10;;;;;;;41.80;23.73;;;-1.30;92.50;;;;;;5061210;28;20177;-53
2020/12/02 03:09:35;;;;;;;39.55;22.77;;;-1.30;93.70;;;;;;5068170;28;20279;-57
2020/12/02 03:12:01;;;;;;;45.33;24.37;;;-1.30;94.20;;;;;;5049079;28;20733;-55
2020/12/02 03:14:27;;;;;;;46.43;23.57;;;-1.30;95.20;;;;;;5067133;28;20196;-54
2020/12/02 03:16:55;;;;;;;45.97;24.63;;;-1.20;96.80;;;;;;5063716;28;20200;-58
2020/12/02 03:19:24;;;;;;;45.13;24.70;;;-1.20;97.20;;;;;;5059562;28;20316;-57
2020/12/02 03:21:53;;;;;;;47.25;24.27;;;-1.10;97.70;;;;;;5066620;28;20263;-56
2020/12/02 03:24:19;;;;;;;41.05;24.25;;;-1.00;98.80;;;;;;5065142;28;20185;-54
2020/12/02 03:26:47;;;;;;;40.75;24.38;;;-1.00;98.80;;;;;;5065391;28;20191;-55
2020/12/02 03:29:13;;;;;;;45.17;24.00;;;-0.90;98.10;;;;;;5063663;28;20181;-57
2020/12/02 03:31:40;;;;;;;40.85;24.70;;;-0.90;98.50;;;;;;5057859;28;20185;-53
2020/12/02 03:34:10;;;;;;;49.33;26.65;;;-0.80;98.90;;;;;;5065999;28;20188;-56
2020/12/02 03:36:36;;;;;;;45.45;24.67;;;-0.70;99.80;;;;;;5067028;28;20189;-59
2020/12/02 03:39:04;;;;;;;51.63;25.67;;;-0.60;99.60;;;;;;5055967;28;20189;-54
2020/12/02 03:41:29;;;;;;;44.33;24.80;;;-0.50;98.50;;;;;;5062494;28;20455;-56
2020/12/02 03:43:55;;;;;;;43.10;23.23;;;-0.50;96.30;;;;;;5066303;28;20192;-57
2020/12/02 03:46:21;;;;;;;43.10;24.67;;;-0.50;93.40;;;;;;5069740;28;20180;-58
2020/12/02 03:48:46;;;;;;;38.90;22.63;;;-0.40;91.70;;;;;;5064647;28;20185;-54
2020/12/02 03:51:12;;;;;;;46.60;25.50;;;-0.40;89.80;;;;;;5053985;28;20178;-57
2020/12/02 03:53:37;;;;;;;45.60;25.77;;;-0.30;85.10;;;;;;5064697;28;20188;-56
2020/12/02 03:56:03;;;;;;;42.90;23.67;;;-0.40;76.40;;;;;;5062806;28;20182;-57
2020/12/02 03:58:29;;;;;;;39.13;23.17;;;-0.30;74.60;;;;;;5062235;28;20667;-57
2020/12/02 04:00:55;;;;;;;43.87;26.00;;;-0.30;72.60;;;;;;5066968;28;20565;-57
2020/12/02 04:03:20;;;;;;;42.23;24.13;;;-0.20;73.50;;;;;;5062159;28;20304;-57
2020/12/02 04:05:46;;;;;;;43.20;25.43;;;-0.20;70.50;;;;;;5055439;28;20223;-57
2020/12/02 04:08:11;;;;;;;42.93;24.47;;;-0.10;69.80;;;;;;5056681;28;20264;-56
2020/12/02 04:10:37;;;;;;;43.63;25.77;;;0.00;64.10;;;;;;5049600;28;20246;-56
2020/12/02 04:13:03;;;;;;;39.60;23.67;;;0.00;60.20;;;;;;5049987;28;20174;-57
2020/12/02 04:15:29;;;;;;;44.85;25.50;;;0.10;56.90;;;;;;5063651;28;20230;-54
2020/12/02 04:17:55;;;;;;;42.57;23.80;;;0.10;51.90;;;;;;5070027;28;20209;-57
2020/12/02 04:20:21;;;;;;;44.45;23.48;;;0.20;48.50;;;;;;5067331;28;20193;-57
2020/12/02 04:22:48;;;;;;;38.17;24.73;;;0.20;45.10;;;;;;5056262;28;20569;-57
2020/12/02 04:25:16;;;;;;;38.60;23.40;;;0.30;43.70;;;;;;5054107;28;21386;-57
2020/12/02 04:27:41;;;;;;;42.72;23.88;;;0.40;33.60;;;;;;5057676;28;20182;-56
2020/12/02 04:30:08;;;;;;;42.07;25.43;;;0.40;30.10;;;;;;5064813;28;20192;-57
2020/12/02 04:32:34;;;;;;;40.90;24.17;;;0.40;22.60;;;;;;5059957;28;20289;-57
2020/12/02 04:35:02;;;;;;;40.97;23.37;;;0.50;19.20;;;;;;5061780;28;20249;-58
2020/12/02 04:37:32;;;;;;;37.60;23.38;;;0.50;15.80;;;;;;5069452;28;20585;-55
2020/12/02 04:39:59;;;;;;;36.90;23.75;;;0.50;14.20;;;;;;5064974;28;20880;-53
2020/12/02 04:42:30;;;;;;;40.65;24.00;;;0.60;6.40;;;;;;5068163;28;20975;-56
2020/12/02 04:44:57;;;;;;;40.08;23.98;;;0.60;5.30;;;;;;5067975;28;20516;-56
2020/12/02 04:47:34;;;;;;;38.72;23.27;;;0.60;5.80;;;;;;5068035;28;20265;-57
2020/12/02 04:50:12;;;;;;;37.15;23.42;;;0.60;1.90;;;;;;5061512;28;20189;-56
2020/12/02 04:52:39;;;;;;;38.75;22.25;;;0.70;3.70;;;;;;5068574;28;20278;-56
2020/12/02 04:55:04;;;;;;;37.33;22.83;;;0.70;1.00;;;;;;5061662;28;20189;-57
2020/12/02 04:57:30;;;;;;;40.47;23.00;;;0.70;1.00;;;;;;5050953;28;20166;-56
2020/12/02 04:59:57;;;;;;;38.03;23.13;;;0.70;1.00;;;;;;5064333;28;20220;-57
2020/12/02 05:02:29;;;;;;;38.67;22.75;;;0.70;1.00;;;;;;5065545;28;20225;-57
2020/12/02 05:05:00;;;;;;;39.35;23.13;;;0.70;1.00;;;;;;5054120;28;20181;-56
2020/12/02 05:07:30;;;;;;;40.00;24.35;;;0.80;1.00;;;;;;5054436;28;20180;-54
2020/12/02 05:10:09;;;;;;;39.28;23.90;;;0.80;1.00;;;;;;5059380;28;20181;-56
2020/12/02 05:12:41;;;;;;;36.53;22.48;;;0.80;1.00;;;;;;5054005;28;20178;-58
2020/12/02 05:15:21;;;;;;;39.47;24.23;;;0.90;1.00;;;;;;5062770;28;20185;-57
2020/12/02 05:18:05;;;;;;;41.15;23.10;;;0.90;1.00;;;;;;5070207;28;20696;-55
2020/12/02 05:20:31;;;;;;;35.72;21.90;;;0.90;1.00;;;;;;5081140;28;20205;-58
2020/12/02 05:23:07;;;;;;;37.95;23.73;;;0.90;1.00;;;;;;5054606;28;20233;-55
2020/12/02 05:25:34;;;;;;;39.50;23.30;;;0.90;1.00;;;;;;5046313;28;20237;-58
2020/12/02 05:28:11;;;;;;;37.20;22.88;;;0.90;1.00;;;;;;5057209;28;20188;-58
2020/12/02 05:30:37;;;;;;;35.58;23.65;;;0.90;1.00;;;;;;5049058;28;20214;-59
2020/12/02 05:33:12;;;;;;;37.28;24.60;;;0.90;1.00;;;;;;5047692;28;20334;-55
2020/12/02 05:36:05;;;;;;;39.08;26.15;;;0.90;1.00;;;;;;5054786;28;20262;-58
2020/12/02 05:38:36;;;;;;;39.03;22.50;;;0.90;1.00;;;;;;5046593;28;21001;-58
2020/12/02 05:41:04;;;;;;;39.25;23.85;;;0.90;1.00;;;;;;5046526;28;20277;-53
2020/12/02 05:43:47;;;;;;;39.72;26.45;;;0.80;1.00;;;;;;5046553;28;20213;-58
2020/12/02 05:46:24;;;;;;;37.78;24.67;;;0.80;1.00;;;;;;5063254;28;20709;-56
2020/12/02 05:48:58;;;;;;;36.17;21.70;;;0.80;1.00;;;;;;5069404;28;20185;-55
2020/12/02 05:51:24;;;;;;;35.38;23.15;;;0.80;1.00;;;;;;5064038;28;20652;-59
2020/12/02 05:54:04;;;;;;;38.60;22.70;;;0.70;1.00;;;;;;5072570;28;20286;-54
2020/12/02 05:56:30;;;;;;;37.45;22.92;;;0.70;1.00;;;;;;5067267;28;20265;-57
2020/12/02 05:58:56;;;;;;;41.13;24.17;;;0.70;1.00;;;;;;5071802;28;20622;-54
2020/12/02 06:01:22;;;;;;;41.77;24.23;;;0.60;1.00;;;;;;5065009;28;20190;-56
2020/12/02 06:03:54;;;;;;;42.88;23.30;;;0.60;1.00;;;;;;5071886;28;20229;-58
2020/12/02 06:06:20;;;;;;;39.53;23.65;;;0.50;1.00;;;;;;5064518;28;20638;-58
2020/12/02 06:08:49;;;;;;;40.50;23.73;;;0.50;1.00;;;;;;5065284;28;20240;-56
2020/12/02 06:11:17;;;;;;;39.05;24.50;;;0.40;1.00;;;;;;5071984;28;20431;-58
2020/12/02 06:13:47;;;;;;;40.28;24.60;;;0.30;1.00;;;;;;5068957;28;20185;-56
2020/12/02 06:16:23;;;;;;;39.92;24.08;;;0.30;1.00;;;;;;5065893;28;20178;-54
2020/12/02 06:18:49;;;;;;;38.33;22.35;;;0.30;1.00;;;;;;5069649;28;20168;-61
2020/12/02 06:21:41;;;;;;;38.78;23.13;;;0.30;1.00;;;;;;5071368;28;20198;-56
2020/12/02 06:24:09;;;;;;;37.78;22.80;;;0.20;1.00;;;;;;5071668;28;20181;-57
2020/12/02 06:26:41;;;;;;;37.95;22.85;;;0.20;1.00;;;;;;5069327;28;20190;-54
2020/12/02 06:29:23;;;;;;;35.70;20.88;;;0.20;1.00;;;;;;5070830;28;20232;-56
2020/12/02 06:31:56;;;;;;;38.75;21.83;;;0.10;1.00;;;;;;5069802;28;20172;-55
2020/12/02 06:34:25;;;;;;;35.58;23.20;;;0.10;1.00;;;;;;5071419;28;20174;-57
2020/12/02 06:37:11;;;;;;;35.08;20.65;;;0.10;1.00;;;;;;5071483;28;20191;-58
2020/12/02 06:39:41;;;;;;;39.63;22.35;;;0.10;1.00;;;;;;5052119;28;20182;-59
2020/12/02 06:42:25;;;;;;;34.65;19.48;;;0.10;1.00;;;;;;5066818;28;20311;-57
2020/12/02 06:45:06;;;;;;;34.00;20.40;;;0.10;1.00;;;;;;5062249;28;20759;-56
2020/12/02 06:47:34;;;;;;;30.55;19.15;;;0.00;1.00;;;;;;5065738;28;20177;-57
2020/12/02 06:50:08;;;;;;;30.95;19.90;;;0.10;1.00;;;;;;5070063;28;20181;-57
2020/12/02 06:52:38;;;;;;;33.60;19.70;;;0.10;1.00;;;;;;5067714;28;20672;-56
2020/12/02 06:55:23;;;;;;;32.08;18.88;;;0.10;1.00;;;;;;5051486;28;20242;-57
2020/12/02 06:57:59;;;;;;;31.05;19.60;;;0.10;1.00;;;;;;5057933;28;20326;-56
2020/12/02 07:00:28;;;;;;;30.98;19.33;;;0.10;1.00;;;;;;5070994;28;20845;-57
2020/12/02 07:02:54;;;;;;;31.80;19.58;;;0.10;1.00;;;;;;5066044;28;20267;-54
2020/12/02 07:05:39;;;;;;;33.30;20.10;;;0.10;1.00;;;;;;5068487;28;20553;-56
2020/12/02 07:08:13;;;;;;;31.38;20.10;;;0.20;1.00;;;;;;5073614;28;20201;-57
2020/12/02 07:10:40;;;;;;;30.60;18.40;;;0.20;1.00;;;;;;5058788;28;20173;-56
2020/12/02 07:13:14;;;;;;;29.10;18.20;;;0.20;1.00;;;;;;5071819;28;20276;-59
2020/12/02 07:15:39;;;;;;;30.98;17.90;;;0.20;1.00;;;;;;5062220;28;20595;-56
2020/12/02 07:18:11;;;;;;;33.33;19.37;;;0.30;1.00;;;;;;5072017;28;20181;-54
2020/12/02 07:20:37;;;;;;;29.50;17.90;;;0.30;1.00;;;;;;5078939;28;20176;-57
2020/12/02 07:23:03;;;;;;;28.90;17.92;;;0.30;1.00;;;;;;5069697;28;20213;-57
2020/12/02 07:25:28;;;;;;;31.00;18.27;;;0.40;1.00;;;;;;5066693;28;20189;-55
2020/12/02 07:27:54;;;;;;;26.87;17.33;;;0.40;1.00;;;;;;5061264;28;20434;-58
2020/12/02 07:30:33;;;;;;;28.80;18.30;;;0.40;1.00;;;;;;5068682;28;20182;-59
2020/12/02 07:33:10;;;;;;;31.75;17.58;;;0.40;1.00;;;;;;5064562;28;20239;-57
2020/12/02 07:35:36;;;;;;;35.92;19.55;;;0.40;1.00;;;;;;5073766;28;20201;-58
2020/12/02 07:38:07;;;;;;;30.57;17.33;;;0.40;1.00;;;;;;5061281;28;20668;-58
2020/12/02 07:40:37;;;;;;;27.08;17.48;;;0.50;1.00;;;;;;5054656;28;20562;-58
2020/12/02 07:43:23;;;;;;;30.10;17.52;;;0.50;1.00;;;;;;5066235;28;20736;-56
2020/12/02 07:45:54;;;;;;;28.20;17.00;;;0.50;1.00;;;;;;5068056;28;20224;-55
2020/12/02 07:48:30;;;;;;;28.50;17.13;;;0.60;1.00;;;;;;5073202;28;20251;-56
2020/12/02 07:51:25;;;;;;;28.90;16.27;;;0.60;1.00;;;;;;5067338;28;20632;-55
2020/12/02 07:54:09;;;;;;;24.60;16.10;;;0.70;1.00;;;;;;5066079;28;20177;-57
2020/12/02 07:56:38;;;;;;;30.38;18.02;;;0.70;1.00;;;;;;5065565;28;20189;-57
2020/12/02 07:59:08;;;;;;;27.98;17.00;;;0.80;1.00;;;;;;5068259;28;20231;-58
2020/12/02 08:01:36;;;;;;;30.60;18.15;;;1.00;1.00;;;;;;5070411;28;20173;-58
2020/12/02 08:04:20;;;;;;;26.90;16.27;;;1.20;1.00;;;;;;5065161;28;20172;-58
2020/12/02 08:06:58;;;;;;;27.25;16.23;;;1.50;1.00;;;;;;5070176;28;20227;-57
2020/12/02 08:09:24;;;;;;;25.70;15.75;;;1.80;1.00;;;;;;5069530;28;20203;-58
2020/12/02 08:11:58;;;;;;;25.93;16.50;;;2.00;99.90;;;;;;5068012;28;20667;-58
2020/12/02 08:14:33;;;;;;;24.30;15.63;;;2.40;99.90;;;;;;5068336;28;20179;-58
2020/12/02 08:17:15;;;;;;;26.85;17.75;;;2.60;1.00;;;;;;5074566;28;20214;-59
2020/12/02 08:19:44;;;;;;;26.80;17.52;;;2.90;1.00;;;;;;5073654;28;20191;-59
2020/12/02 08:22:44;;;;;;;27.92;16.80;;;3.00;99.90;;;;;;5070972;28;20208;-59
2020/12/02 08:25:21;;;;;;;24.80;16.73;;;3.30;1.00;;;;;;5061300;28;20185;-58
2020/12/02 08:27:52;;;;;;;23.13;17.42;;;3.60;1.00;;;;;;5074443;28;20723;-57
2020/12/02 08:30:22;;;;;;;26.42;17.45;;;3.80;1.00;;;;;;5059738;28;20216;-56
2020/12/02 08:33:09;;;;;;;25.20;16.83;;;4.00;1.00;;;;;;5067007;28;20227;-58
2020/12/02 08:35:50;;;;;;;25.00;16.70;;;4.20;99.90;;;;;;5053135;28;20190;-58
2020/12/02 08:38:32;;;;;;;27.63;17.10;;;4.50;65.40;;;;;;5067919;28;20183;-58
2020/12/02 08:40:59;;;;;;;24.75;17.27;;;4.90;1.00;;;;;;5075966;28;20359;-57
2020/12/02 08:43:40;;;;;;;22.80;17.00;;;5.10;99.90;;;;;;5081061;28;20212;-58
2020/12/02 08:46:17;;;;;;;25.02;17.67;;;5.40;99.90;;;;;;5055864;28;20223;-59
2020/12/02 08:48:46;;;;;;;21.10;16.58;;;5.80;3.60;;;;;;5059168;28;20235;-56
2020/12/02 08:51:17;;;;;;;24.25;17.55;;;5.80;1.00;;;;;;5048571;28;20169;-57
2020/12/02 08:53:43;;;;;;;22.88;16.95;;;5.80;1.00;;;;;;5066676;28;20181;-58
2020/12/02 08:56:36;;;;;;;25.67;18.70;;;5.90;1.00;;;;;;5058489;28;20182;-59
2020/12/02 08:59:04;;;;;;;26.35;17.23;;;6.00;1.00;;;;;;5065210;28;20801;-58
2020/12/02 09:01:30;;;;;;;24.27;17.02;;;6.20;1.00;;;;;;5069972;28;20195;-58
2020/12/02 09:03:55;;;;;;;25.90;18.50;;;6.30;1.00;;;;;;5067628;28;20174;-59
2020/12/02 09:06:22;;;;;;;25.73;18.43;;;6.20;1.00;;;;;;5066863;28;20206;-58
2020/12/02 09:08:48;;;;;;;23.55;17.60;;;6.10;1.00;;;;;;5066270;28;20671;-59
2020/12/02 09:11:18;;;;;;;24.33;16.88;;;6.10;1.00;;;;;;5068044;28;20681;-59
2020/12/02 09:13:44;;;;;;;25.27;18.63;;;6.30;1.00;;;;;;5072671;28;20187;-59
2020/12/02 09:16:10;;;;;;;27.97;17.03;;;6.30;1.00;;;;;;5067569;28;20182;-59
2020/12/02 09:18:35;;;;;;;25.90;17.80;;;5.80;1.00;;;;;;5069316;28;20185;-57
2020/12/02 09:21:01;;;;;;;26.20;18.00;;;5.80;1.00;;;;;;5069144;28;20264;-58
2020/12/02 09:23:26;;;;;;;25.20;18.30;;;5.70;1.00;;;;;;5076826;28;20228;-58
2020/12/02 09:25:52;;;;;;;25.93;17.90;;;5.70;1.00;;;;;;5062561;28;20193;-59
2020/12/02 09:28:18;;;;;;;26.10;18.73;;;5.70;1.00;;;;;;5047010;28;20209;-58
2020/12/02 09:30:43;;;;;;;28.37;18.77;;;5.30;1.00;;;;;;5067157;28;20178;-56
2020/12/02 09:33:09;;;;;;;27.27;18.00;;;5.50;1.00;;;;;;5070455;28;20188;-58
2020/12/02 09:35:35;;;;;;;29.50;18.13;;;5.60;1.00;;;;;;5074401;28;20271;-56
2020/12/02 09:38:01;;;;;;;24.23;18.30;;;5.90;1.00;;;;;;5067127;28;20612;-58
2020/12/02 09:40:27;;;;;;;27.97;17.87;;;6.30;1.00;;;;;;5073688;28;20302;-57
2020/12/02 09:43:10;;;;;;;25.13;18.43;;;6.40;1.00;;;;;;5062672;28;20255;-57
2020/12/02 09:45:50;;;;;;;24.70;18.15;;;6.30;1.00;;;;;;5051850;28;20182;-59
2020/12/02 09:48:19;;;;;;;25.80;18.10;;;6.20;1.00;;;;;;5063590;28;20185;-58
2020/12/02 09:50:45;;;;;;;27.77;18.25;;;6.20;1.00;;;;;;5054267;28;20274;-58
2020/12/02 09:53:28;;;;;;;25.75;18.23;;;6.60;99.90;;;;;;5056560;28;20198;-58
2020/12/02 09:55:54;;;;;;;24.55;17.23;;;6.90;99.90;;;;;;5072280;28;20188;-58
2020/12/02 09:58:20;;;;;;;26.57;17.43;;;7.00;99.90;;;;;;5059618;28;20191;-58
2020/12/02 10:00:46;;;;;;;26.97;17.50;;;7.20;99.90;;;;;;5070900;28;20771;-57
2020/12/02 10:03:35;;;;;;;25.97;17.70;;;6.90;99.90;;;;;;5063779;28;20232;-59
2020/12/02 10:06:30;;;;;;;26.83;18.27;;;6.70;99.90;;;;;;5070471;28;20331;-56
2020/12/02 10:08:59;;;;;;;28.20;17.08;;;6.90;99.90;;;;;;5065902;28;20524;-56
2020/12/02 10:11:45;;;;;;;25.48;17.00;;;6.60;99.90;;;;;;5053544;28;20195;-58
2020/12/02 10:14:20;;;;;;;24.65;16.95;;;6.50;99.90;;;;;;5083424;28;20189;-56
2020/12/02 10:17:26;;;;;;;26.08;18.40;;;6.40;99.90;;;;;;5073554;28;20223;-57
2020/12/02 10:20:20;;;;;;;28.05;18.48;;;6.20;99.90;;;;;;5059179;28;20196;-56
2020/12/02 10:22:52;;;;;;;27.67;17.90;;;6.00;99.90;;;;;;5072285;28;20738;-56
2020/12/02 10:25:45;;;;;;;24.73;17.73;;;6.20;99.90;;;;;;5067706;28;20269;-57
2020/12/02 10:28:29;;;;;;;26.45;18.98;;;6.30;99.90;;;;;;5015822;28;20907;-59
2020/12/02 10:31:13;;;;;;;25.15;17.55;;;6.30;99.90;;;;;;5059079;28;20184;-54
2020/12/02 10:34:11;;;;;;;26.42;18.73;;;6.40;99.90;;;;;;5062145;28;20185;-57
2020/12/02 10:36:42;;;;;;;26.17;17.92;;;6.30;99.90;;;;;;5056284;28;20182;-53
2020/12/02 10:39:15;;;;;;;24.98;18.50;;;6.20;99.90;;;;;;5083577;28;20191;-52
2020/12/02 10:41:57;;;;;;;29.17;19.45;;;6.20;99.90;;;;;;5062273;28;20223;-55
2020/12/02 10:44:51;;;;;;;23.55;17.20;;;6.10;99.90;;;;;;5073067;28;20186;-52
2020/12/02 10:47:40;;;;;;;24.77;17.42;;;6.00;99.90;;;;;;5081005;28;20210;-54
2020/12/02 10:50:08;;;;;;;26.05;18.85;;;6.00;99.90;;;;;;5060954;28;20190;-57
2020/12/02 10:52:33;;;;;;;26.15;18.75;;;5.80;99.90;;;;;;5050546;28;20225;-56
2020/12/02 10:55:01;;;;;;;24.20;17.27;;;5.60;99.90;;;;;;5065616;28;20216;-58
2020/12/02 10:57:27;;;;;;;23.90;17.80;;;5.80;99.90;;;;;;5070000;28;20193;-56
2020/12/02 10:59:55;;;;;;;28.97;18.90;;;6.00;99.90;;;;;;5073915;28;20683;-56
2020/12/02 11:02:27;;;;;;;26.02;17.15;;;6.20;99.90;;;;;;5063589;28;20205;-57
2020/12/02 11:04:54;;;;;;;29.25;19.13;;;6.00;99.90;;;;;;5066824;28;20193;-58
2020/12/02 11:07:39;;;;;;;25.55;17.83;;;6.40;99.90;;;;;;5052191;28;20208;-58
2020/12/02 11:10:12;;;;;;;26.08;18.73;;;6.60;99.90;;;;;;5066478;28;20206;-58
2020/12/02 11:12:58;;;;;;;24.80;18.05;;;6.80;99.90;;;;;;5061532;28;20187;-58
2020/12/02 11:15:30;;;;;;;26.55;19.00;;;6.70;99.90;;;;;;5070637;28;21050;-58
2020/12/02 11:18:13;;;;;;;25.30;18.63;;;7.00;99.90;;;;;;5075690;28;20184;-57
2020/12/02 11:20:51;;;;;;;27.67;19.40;;;7.10;99.90;;;;;;5065969;28;20434;-58
2020/12/02 11:23:52;;;;;;;26.90;19.53;;;7.10;99.90;;;;;;5062954;28;20475;-57
2020/12/02 11:26:27;;;;;;;26.75;19.70;;;7.20;99.90;;;;;;5057453;28;20885;-58
2020/12/02 11:28:54;;;;;;;26.65;18.60;;;7.00;99.90;;;;;;5052034;28;20176;-56
2020/12/02 11:31:34;;;;;;;25.38;18.08;;;6.50;99.90;;;;;;5065909;28;20186;-58
2020/12/02 11:34:10;;;;;;;27.27;19.27;;;6.50;99.90;;;;;;5073852;28;20186;-59
2020/12/02 11:37:17;;;;;;;24.03;18.60;;;6.90;99.90;;;;;;5068294;28;20183;-54
2020/12/02 11:40:00;;;;;;;26.13;18.50;;;6.90;99.90;;;;;;5052055;28;20451;-55
2020/12/02 11:42:46;;;;;;;26.45;18.95;;;7.10;99.90;;;;;;5055090;28;20823;-54
2020/12/02 11:45:17;;;;;;;27.42;19.88;;;6.40;99.90;;;;;;5067581;28;20201;-61
2020/12/02 11:47:45;;;;;;;26.50;18.35;;;6.40;99.90;;;;;;5069396;28;20216;-64
2020/12/02 11:50:32;;;;;;;25.77;19.50;;;6.00;99.90;;;;;;5069564;28;20185;-61
2020/12/02 11:53:20;;;;;;;26.55;19.35;;;6.20;99.90;;;;;;5068675;28;20796;-59
2020/12/02 11:55:46;;;;;;;28.15;19.33;;;6.00;99.90;;;;;;5076505;28;20173;-61
2020/12/02 11:58:14;;;;;;;28.23;19.17;;;6.10;99.90;;;;;;5073774;28;20526;-60
2020/12/02 12:00:39;;;;;;;27.20;18.13;;;6.10;99.90;;;;;;5065355;28;20185;-59
2020/12/02 12:03:17;;;;;;;26.80;19.90;;;6.20;99.90;;;;;;5076352;28;20193;-60
2020/12/02 12:06:05;;;;;;;25.20;18.15;;;6.20;99.90;;;;;;5067130;28;20194;-64
2020/12/02 12:08:56;;;;;;;28.60;18.80;;;6.30;99.90;;;;;;5066984;28;20225;-62
2020/12/02 12:11:31;;;;;;;29.05;18.75;;;6.10;99.90;;;;;;5066720;28;20217;-60
2020/12/02 12:14:33;;;;;;;26.20;19.80;;;6.10;99.90;;;;;;5066098;28;20186;-56
2020/12/02 12:17:19;;;;;;;31.02;19.50;;;6.10;99.90;;;;;;5066765;28;20597;-57
2020/12/02 12:19:45;;;;;;;25.88;19.55;;;6.10;99.90;;;;;;5058066;28;20655;-57
2020/12/02 12:22:37;;;;;;;28.17;19.07;;;6.10;99.90;;;;;;5067581;28;20195;-55
2020/12/02 12:25:41;;;;;;;30.45;20.10;;;6.10;99.90;;;;;;5065978;28;20204;-58
2020/12/02 12:28:22;;;;;;;24.27;19.42;;;6.20;99.90;;;;;;5063716;28;20189;-53
2020/12/02 12:30:50;;;;;;;25.80;18.90;;;5.50;99.90;;;;;;5066593;28;20530;-59
2020/12/02 12:33:21;;;;;;;28.23;19.10;;;5.00;99.90;;;;;;5067523;28;20231;-55
2020/12/02 12:35:54;;;;;;;27.92;19.52;;;5.20;99.90;;;;;;5066579;28;20693;-59
2020/12/02 12:38:35;;;;;;;28.27;20.38;;;5.20;99.90;;;;;;5065102;28;20177;-57
2020/12/02 12:41:25;;;;;;;28.20;20.25;;;5.30;99.90;;;;;;5068077;28;20875;-60
2020/12/02 12:44:02;;;;;;;31.05;20.88;;;4.90;99.90;;;;;;5066133;28;20213;-58
2020/12/02 12:46:51;;;;;;;32.40;21.02;;;4.50;99.90;;;;;;5065448;28;20180;-60
2020/12/02 12:49:17;;;;;;;31.30;19.85;;;4.10;1.00;;;;;;5068646;28;20639;-62
2020/12/02 12:51:45;;;;;;;33.53;19.25;;;3.90;1.00;;;;;;5062832;28;20180;-56
2020/12/02 12:54:15;;;;;;;32.75;21.65;;;4.00;1.00;;;;;;5067020;28;20192;-61
2020/12/02 12:56:42;;;;;;;33.83;21.58;;;3.90;1.00;;;;;;5067968;28;20173;-58
2020/12/02 12:59:16;;;;;;;33.90;23.05;;;3.30;1.00;;;;;;5066178;28;20219;-63
2020/12/02 13:01:47;;;;;;;34.95;22.33;;;3.00;47.80;;;;;;5069699;28;20175;-59
2020/12/02 13:04:15;;;;;;;35.08;22.98;;;2.60;99.90;;;;;;5057733;28;20174;-58
2020/12/02 13:06:41;;;;;;;33.13;21.25;;;2.40;1.00;;;;;;5069833;28;20198;-63